Time;durP1;ratioP1;P1;durP2;ratioP2;P2;SDS_P1;SDS_P2;PMS_P1;PMS_P2;Temp;Humidity;BMP_temperature;BMP_pressure;BME280_temperature;BME280_humidity;BME280_pressure;Samples;Min_cycle;Max_cycle;Signal;HPM_P1;HPM_P2
2022/11/30 00:01:53;;;;;;;2.70;1.50;;;;;;;19.07;58.74;100614.75;5074776;28;20614;-64
2022/11/30 00:04:19;;;;;;;3.30;1.70;;;;;;;19.05;58.91;100614.31;5075190;28;20642;-64
2022/11/30 00:06:44;;;;;;;2.70;1.53;;;;;;;19.03;58.94;100602.44;5040118;28;20210;-64
2022/11/30 00:09:10;;;;;;;2.97;1.80;;;;;;;19.05;58.91;100608.59;5074743;28;20500;-64
2022/11/30 00:11:35;;;;;;;2.50;1.50;;;;;;;19.03;59.22;100599.59;5075434;28;20619;-64
2022/11/30 00:14:01;;;;;;;3.33;1.80;;;;;;;19.07;58.78;100608.22;5074551;28;20166;-64
2022/11/30 00:16:26;;;;;;;2.90;2.00;;;;;;;19.06;58.75;100603.72;5073746;28;20200;-64
2022/11/30 00:18:52;;;;;;;2.83;1.80;;;;;;;18.99;58.89;100607.25;5073912;28;20187;-64
2022/11/30 00:21:17;;;;;;;2.50;1.60;;;;;;;19.03;58.69;100605.31;5074112;28;20186;-64
2022/11/30 00:23:43;;;;;;;4.10;1.83;;;;;;;19.06;58.65;100609.44;5074004;28;20193;-64
2022/11/30 00:26:10;;;;;;;2.90;1.70;;;;;;;19.04;58.81;100606.97;5056682;28;20155;-64
2022/11/30 00:28:36;;;;;;;3.17;1.80;;;;;;;19.05;58.88;100608.59;5055788;28;20419;-64
2022/11/30 00:31:04;;;;;;;2.60;1.80;;;;;;;19.07;58.82;100609.03;5073680;28;20508;-64
2022/11/30 00:33:33;;;;;;;3.47;1.67;;;;;;;19.09;58.79;100603.78;5039542;28;20194;-64
2022/11/30 00:36:02;;;;;;;3.07;2.10;;;;;;;19.06;58.79;100601.66;5056013;28;20425;-64
2022/11/30 00:38:28;;;;;;;2.67;1.73;;;;;;;19.02;58.75;100609.34;5055768;28;21041;-64
2022/11/30 00:40:53;;;;;;;2.30;1.63;;;;;;;18.98;58.91;100605.59;5073692;28;20406;-64
2022/11/30 00:43:19;;;;;;;2.60;1.70;;;;;;;19.05;58.81;100605.75;5073461;28;20182;-64
2022/11/30 00:45:45;;;;;;;2.10;1.53;;;;;;;19.02;58.56;100609.34;5074004;28;20189;-64
2022/11/30 00:48:10;;;;;;;2.93;2.00;;;;;;;19.04;58.88;100608.97;5073120;28;20217;-64
2022/11/30 00:50:35;;;;;;;3.67;1.87;;;;;;;19.04;58.76;100608.97;5066035;28;20184;-64
2022/11/30 00:53:01;;;;;;;2.50;1.73;;;;;;;19.00;59.00;100608.91;5053143;28;20222;-64
2022/11/30 00:55:26;;;;;;;3.17;1.80;;;;;;;19.03;58.74;100619.63;5053236;28;20621;-64
2022/11/30 00:57:52;;;;;;;2.47;1.50;;;;;;;19.03;58.78;100618.78;5053110;28;20728;-64
2022/11/30 01:00:18;;;;;;;2.77;1.50;;;;;;;19.04;58.78;100621.25;5053238;28;20168;-64
2022/11/30 01:02:44;;;;;;;3.10;1.77;;;;;;;19.02;58.84;100622.84;5019883;28;20605;-64
2022/11/30 01:05:09;;;;;;;3.10;2.07;;;;;;;18.98;58.85;100625.63;5077005;28;20274;-63
2022/11/30 01:07:35;;;;;;;2.50;1.57;;;;;;;19.00;58.99;100622.38;5058131;28;21231;-63
2022/11/30 01:10:00;;;;;;;3.90;1.97;;;;;;;19.03;58.85;100625.34;5074532;28;20167;-63
2022/11/30 01:12:26;;;;;;;2.90;2.07;;;;;;;19.02;58.80;100626.50;5076472;28;20198;-64
2022/11/30 01:14:51;;;;;;;2.90;1.70;;;;;;;19.02;58.96;100631.44;5075734;28;20175;-63
2022/11/30 01:17:16;;;;;;;4.60;2.17;;;;;;;18.96;58.94;100625.16;5076178;28;20182;-64
2022/11/30 01:19:42;;;;;;;3.47;2.00;;;;;;;18.98;58.71;100628.50;5075782;28;20224;-63
2022/11/30 01:22:07;;;;;;;2.10;1.30;;;;;;;19.01;58.79;100624.88;5074891;28;20167;-64
2022/11/30 01:24:33;;;;;;;3.30;2.13;;;;;;;18.99;58.79;100635.03;5075808;28;20170;-64
2022/11/30 01:26:58;;;;;;;3.17;2.00;;;;;;;18.96;59.04;100633.75;5076151;28;20615;-63
2022/11/30 01:29:23;;;;;;;3.13;1.80;;;;;;;18.99;58.95;100637.88;5066960;28;20623;-64
2022/11/30 01:31:49;;;;;;;2.53;1.43;;;;;;;18.97;59.05;100634.59;5063336;28;20821;-64
2022/11/30 01:34:14;;;;;;;6.63;2.70;;;;;;;18.72;58.25;100636.06;5078051;28;20185;-63
2022/11/30 01:36:40;;;;;;;9.57;5.00;;;;;;;18.51;56.98;100624.97;5056356;28;20171;-63
2022/11/30 01:39:06;;;;;;;15.83;9.97;;;;;;;18.20;56.58;100633.56;5075307;28;20183;-63
2022/11/30 01:41:32;;;;;;;21.10;10.20;;;;;;;18.36;55.64;100628.69;5019978;28;20180;-64
2022/11/30 01:44:17;;;;;;;22.33;10.60;;;;;;;18.53;55.22;100636.88;5065887;28;20440;-63
2022/11/30 01:46:59;;;;;;;25.47;11.57;;;;;;;18.61;55.21;100632.97;5073759;28;20593;-63
2022/11/30 01:49:35;;;;;;;23.90;10.60;;;;;;;18.70;54.85;100633.56;5070725;28;20523;-63
2022/11/30 01:52:02;;;;;;;18.90;9.30;;;;;;;18.75;54.38;100633.28;5077664;28;20773;-63
2022/11/30 01:54:30;;;;;;;18.27;9.20;;;;;;;18.79;54.45;100625.63;5055519;28;20461;-63
2022/11/30 01:56:58;;;;;;;14.33;9.30;;;;;;;18.81;54.08;100637.50;5069917;28;20466;-64
2022/11/30 01:59:23;;;;;;;20.67;9.33;;;;;;;18.94;53.77;100630.44;5068918;28;20801;-63
2022/11/30 02:01:49;;;;;;;14.47;9.50;;;;;;;18.94;53.61;100629.59;5051552;28;20441;-63
2022/11/30 02:04:23;;;;;;;17.87;9.13;;;;;;;18.97;54.37;100634.59;5050243;28;20190;-64
2022/11/30 02:06:49;;;;;;;14.80;8.20;;;;;;;19.09;56.04;100632.41;5052657;28;20215;-64
2022/11/30 02:09:15;;;;;;;17.57;9.00;;;;;;;19.22;54.98;100636.78;5056845;28;20461;-64
2022/11/30 02:11:41;;;;;;;17.43;9.13;;;;;;;19.27;55.08;100642.19;5068959;28;20177;-64
2022/11/30 02:14:12;;;;;;;15.53;8.60;;;;;;;19.16;54.77;100646.03;5073017;28;20410;-63
2022/11/30 02:16:49;;;;;;;15.23;8.33;;;;;;;19.03;54.31;100642.50;5053357;28;20168;-63
2022/11/30 02:19:33;;;;;;;14.10;7.77;;;;;;;18.94;54.90;100636.16;5036093;28;20955;-63
2022/11/30 02:22:03;;;;;;;13.27;7.60;;;;;;;18.98;54.91;100645.66;5073448;28;20441;-63
2022/11/30 02:24:35;;;;;;;14.17;7.27;;;;;;;18.98;55.14;100637.06;5056242;28;20418;-63
2022/11/30 02:27:31;;;;;;;12.33;7.73;;;;;;;19.03;54.89;100642.50;5074427;28;20640;-64
2022/11/30 02:29:59;;;;;;;11.80;6.53;;;;;;;19.01;55.40;100630.59;5073751;28;20420;-63
2022/11/30 02:32:38;;;;;;;17.00;6.80;;;;;;;18.99;55.29;100635.03;5075737;28;20423;-63
2022/11/30 02:35:04;;;;;;;13.40;6.87;;;;;;;19.03;55.26;100631.06;5059971;28;20421;-63
2022/11/30 02:37:29;;;;;;;14.67;7.37;;;;;;;19.02;55.37;100640.81;5043313;28;20448;-64
2022/11/30 02:39:55;;;;;;;16.73;6.33;;;;;;;19.02;55.39;100640.81;5070148;28;20190;-63
2022/11/30 02:42:20;;;;;;;16.73;6.80;;;;;;;19.01;55.64;100644.91;5090381;28;20163;-63
2022/11/30 02:44:47;;;;;;;16.43;5.80;;;;;;;18.98;55.76;100648.53;5073219;28;20257;-63
2022/11/30 02:47:21;;;;;;;13.27;6.43;;;;;;;19.00;55.73;100645.25;5073458;28;20238;-63
2022/11/30 02:49:57;;;;;;;11.00;6.30;;;;;;;18.97;55.96;100646.03;5073399;28;20499;-64
2022/11/30 02:52:24;;;;;;;8.30;5.80;;;;;;;18.99;55.92;100641.59;5023647;28;20509;-63
2022/11/30 02:54:49;;;;;;;12.93;6.30;;;;;;;18.96;56.35;100633.75;5039686;28;20552;-63
2022/11/30 02:57:15;;;;;;;10.60;6.20;;;;;;;18.95;56.35;100643.53;5083754;28;20722;-63
2022/11/30 02:59:40;;;;;;;12.43;6.53;;;;;;;18.93;56.50;100645.97;5076606;28;20190;-63
2022/11/30 03:02:06;;;;;;;9.97;5.47;;;;;;;18.95;56.53;100645.56;5057497;28;20189;-63
2022/11/30 03:04:31;;;;;;;11.93;6.33;;;;;;;18.96;56.62;100635.81;5073660;28;20199;-63
2022/11/30 03:06:57;;;;;;;11.10;5.90;;;;;;;18.91;56.64;100642.63;5074079;28;20193;-64
2022/11/30 03:09:22;;;;;;;10.57;5.77;;;;;;;18.90;56.80;100632.41;5073633;28;20225;-63
2022/11/30 03:11:48;;;;;;;13.57;5.93;;;;;;;18.91;56.79;100636.91;5073907;28;20175;-63
2022/11/30 03:14:13;;;;;;;10.83;5.77;;;;;;;18.92;56.67;100647.13;5090147;28;20224;-63
2022/11/30 03:16:38;;;;;;;8.10;5.40;;;;;;;18.93;56.79;100650.84;5093950;28;20174;-63
2022/11/30 03:19:04;;;;;;;10.67;5.10;;;;;;;18.91;56.90;100642.63;5078605;28;20187;-63
2022/11/30 03:21:30;;;;;;;9.00;5.40;;;;;;;18.91;56.91;100648.34;5080899;28;20214;-63
2022/11/30 03:23:55;;;;;;;9.87;5.67;;;;;;;18.90;56.96;100645.84;5073456;28;20178;-63
2022/11/30 03:26:20;;;;;;;6.97;4.63;;;;;;;18.93;56.95;100642.25;5074075;28;20190;-63
2022/11/30 03:28:46;;;;;;;14.50;5.33;;;;;;;18.92;57.10;100644.28;5055156;28;20610;-63
2022/11/30 03:31:12;;;;;;;9.33;4.93;;;;;;;18.94;57.21;100643.91;5062353;28;20520;-63
2022/11/30 03:33:41;;;;;;;7.87;4.47;;;;;;;18.93;57.29;100647.97;5083946;28;20574;-63
2022/11/30 03:36:07;;;;;;;10.00;5.40;;;;;;;18.93;57.09;100648.81;5094058;28;20602;-63
2022/11/30 03:38:33;;;;;;;10.20;5.50;;;;;;;18.90;57.35;100652.41;5078929;28;20465;-63
2022/11/30 03:41:06;;;;;;;9.03;5.37;;;;;;;18.94;57.10;100647.63;5073171;28;20417;-63
2022/11/30 03:43:31;;;;;;;9.80;5.20;;;;;;;18.93;57.24;100654.53;5079162;28;20455;-63
2022/11/30 03:45:57;;;;;;;7.60;5.10;;;;;;;18.94;57.26;100647.63;5055073;28;20441;-63
2022/11/30 03:48:22;;;;;;;7.37;4.53;;;;;;;18.93;57.40;100657.41;5076494;28;20177;-63
2022/11/30 03:50:49;;;;;;;9.77;4.63;;;;;;;18.92;57.32;100650.00;5083275;28;20187;-63
2022/11/30 03:53:18;;;;;;;10.27;5.50;;;;;;;18.92;57.37;100644.28;5093050;28;20174;-63
2022/11/30 03:55:43;;;;;;;13.90;5.10;;;;;;;18.92;57.65;100655.72;5073866;28;20502;-63
2022/11/30 03:58:09;;;;;;;9.87;5.50;;;;;;;18.94;57.60;100653.34;5082231;28;20452;-63
2022/11/30 04:00:34;;;;;;;10.33;5.13;;;;;;;18.92;57.52;100654.91;5072361;28;20178;-64
2022/11/30 04:03:00;;;;;;;13.97;5.80;;;;;;;18.93;57.40;100656.56;5054847;28;20839;-63
2022/11/30 04:05:25;;;;;;;10.30;4.70;;;;;;;18.91;57.68;100658.97;5072776;28;20194;-63
2022/11/30 04:07:51;;;;;;;7.37;5.03;;;;;;;18.90;57.45;100652.41;5079643;28;20200;-63
2022/11/30 04:10:16;;;;;;;8.00;4.97;;;;;;;18.92;57.69;100654.91;5092972;28;20174;-63
2022/11/30 04:12:42;;;;;;;9.70;4.80;;;;;;;18.96;57.53;100662.34;5092890;28;20216;-64
2022/11/30 04:15:08;;;;;;;6.83;4.43;;;;;;;18.94;57.50;100658.22;5078165;28;20190;-63
2022/11/30 04:17:33;;;;;;;7.30;4.90;;;;;;;18.92;57.62;100655.72;5075289;28;20191;-64
2022/11/30 04:19:58;;;;;;;7.93;4.77;;;;;;;18.88;57.80;100660.56;5065466;28;21316;-63
2022/11/30 04:22:24;;;;;;;8.33;4.83;;;;;;;18.90;57.75;100660.16;5072579;28;20198;-63
2022/11/30 04:24:49;;;;;;;7.07;4.90;;;;;;;18.88;57.73;100649.13;5072563;28;20159;-64
2022/11/30 04:27:15;;;;;;;5.57;4.10;;;;;;;18.94;57.66;100661.06;5073360;28;20166;-63
2022/11/30 04:29:40;;;;;;;9.57;4.90;;;;;;;18.92;57.88;100652.88;5088166;28;20171;-64
2022/11/30 04:32:05;;;;;;;8.00;5.30;;;;;;;18.90;57.84;100658.16;5051293;28;20180;-63
2022/11/30 04:34:31;;;;;;;10.60;4.90;;;;;;;18.91;57.79;100659.78;5071282;28;20175;-63
2022/11/30 04:36:56;;;;;;;8.50;4.47;;;;;;;18.88;57.57;100654.84;5071736;28;20179;-64
2022/11/30 04:39:22;;;;;;;9.07;5.03;;;;;;;18.90;57.74;100657.31;5076197;28;20210;-64
2022/11/30 04:41:47;;;;;;;7.40;4.30;;;;;;;18.88;57.73;100654.00;5075821;28;20208;-64
2022/11/30 04:44:13;;;;;;;6.43;4.93;;;;;;;18.87;57.88;100658.88;5088194;28;20604;-63
2022/11/30 04:46:38;;;;;;;14.27;5.20;;;;;;;18.87;58.01;100653.16;5083828;28;20164;-63
2022/11/30 04:49:03;;;;;;;11.80;4.90;;;;;;;18.89;57.85;100655.66;5081447;28;20167;-63
2022/11/30 04:51:29;;;;;;;7.53;4.50;;;;;;;18.89;57.80;100656.50;5075895;28;20236;-63
2022/11/30 04:53:54;;;;;;;8.40;4.63;;;;;;;18.88;58.00;100654.84;5076469;28;20174;-64
2022/11/30 04:56:20;;;;;;;9.23;4.50;;;;;;;18.90;58.01;100660.16;5076135;28;20230;-63
2022/11/30 04:58:45;;;;;;;6.60;4.20;;;;;;;18.88;58.03;100654.00;5077812;28;20195;-64
2022/11/30 05:01:10;;;;;;;9.90;5.37;;;;;;;18.89;57.84;100658.50;5076497;28;20171;-64
2022/11/30 05:03:36;;;;;;;9.00;5.20;;;;;;;18.88;57.95;100660.56;5076199;28;20155;-63
2022/11/30 05:06:02;;;;;;;6.80;4.60;;;;;;;18.90;57.96;100663.03;5077535;28;20529;-64
2022/11/30 05:08:27;;;;;;;10.60;4.60;;;;;;;18.91;57.96;100659.78;5080253;28;20654;-64
2022/11/30 05:10:53;;;;;;;9.10;4.30;;;;;;;18.89;58.03;100667.09;5076501;28;20163;-64
2022/11/30 05:13:18;;;;;;;6.90;4.10;;;;;;;18.89;57.94;100667.94;5063645;28;20222;-64
2022/11/30 05:15:44;;;;;;;8.57;4.60;;;;;;;18.90;57.93;100663.88;5056269;28;20172;-63
2022/11/30 05:18:10;;;;;;;6.13;4.57;;;;;;;18.89;57.90;100667.09;5063958;28;20256;-64
2022/11/30 05:20:35;;;;;;;10.17;4.67;;;;;;;18.89;58.01;100667.09;5069567;28;20179;-63
2022/11/30 05:23:00;;;;;;;7.90;4.60;;;;;;;18.88;58.01;100663.44;5079326;28;20171;-64
2022/11/30 05:25:26;;;;;;;5.97;4.03;;;;;;;18.88;58.07;100665.44;5075326;28;20643;-63
2022/11/30 05:27:51;;;;;;;7.80;4.53;;;;;;;18.90;57.98;100668.75;5077173;28;20174;-64
2022/11/30 05:30:17;;;;;;;9.27;4.70;;;;;;;18.92;57.88;100672.88;5078561;28;20569;-64
2022/11/30 05:32:42;;;;;;;8.90;4.20;;;;;;;18.90;58.06;100674.47;5077313;28;20190;-64
2022/11/30 05:35:08;;;;;;;7.43;4.30;;;;;;;18.91;58.04;100676.16;5075549;28;20190;-63
2022/11/30 05:37:33;;;;;;;8.17;4.50;;;;;;;18.88;58.18;100683.44;5074758;28;20177;-64
2022/11/30 05:39:59;;;;;;;5.40;3.93;;;;;;;18.90;58.02;100674.47;5075539;28;20187;-64
2022/11/30 05:42:24;;;;;;;7.23;4.00;;;;;;;18.90;58.15;100668.75;5076281;28;20179;-64
2022/11/30 05:44:50;;;;;;;11.17;5.33;;;;;;;18.88;58.12;100674.03;5096060;28;20171;-63
2022/11/30 05:47:15;;;;;;;7.90;4.50;;;;;;;18.91;58.02;100679.00;5077738;28;20179;-64
2022/11/30 05:49:41;;;;;;;7.13;4.33;;;;;;;18.89;58.04;100676.53;5073308;28;20273;-64
2022/11/30 05:52:06;;;;;;;7.60;4.60;;;;;;;18.88;58.23;100671.16;5056022;28;20229;-63
2022/11/30 05:54:33;;;;;;;7.70;4.50;;;;;;;18.93;57.99;100680.28;5055341;28;20250;-64
2022/11/30 05:56:58;;;;;;;7.10;4.40;;;;;;;18.90;57.94;100681.03;5050754;28;20186;-64
2022/11/30 05:59:24;;;;;;;6.80;4.57;;;;;;;18.88;58.08;100676.88;5090280;28;20443;-63
2022/11/30 06:01:52;;;;;;;6.97;4.20;;;;;;;18.88;57.96;100677.72;5075128;28;20159;-64
2022/11/30 06:04:18;;;;;;;6.20;4.20;;;;;;;18.90;58.21;100681.03;5075246;28;20263;-63
2022/11/30 06:06:43;;;;;;;9.40;4.50;;;;;;;18.90;58.10;100675.31;5075134;28;20437;-63
2022/11/30 06:09:08;;;;;;;7.30;4.40;;;;;;;18.93;57.97;100680.28;5088480;28;20171;-63
2022/11/30 06:11:34;;;;;;;6.90;3.90;;;;;;;18.91;58.20;100682.69;5095580;28;20162;-63
2022/11/30 06:13:59;;;;;;;8.23;4.40;;;;;;;18.90;58.17;100683.06;5095151;28;20177;-64
2022/11/30 06:16:25;;;;;;;7.97;4.77;;;;;;;18.92;57.92;100672.09;5095452;28;20166;-64
2022/11/30 06:18:51;;;;;;;10.00;4.07;;;;;;;18.91;58.11;100676.97;5088163;28;20210;-63
2022/11/30 06:21:16;;;;;;;6.50;4.17;;;;;;;18.91;58.18;100681.88;5086965;28;20183;-65
2022/11/30 06:23:42;;;;;;;7.20;3.70;;;;;;;18.92;57.97;100674.94;5073973;28;20428;-65
2022/11/30 06:26:09;;;;;;;6.87;4.13;;;;;;;18.92;58.15;100677.81;5075106;28;20218;-62
2022/11/30 06:28:35;;;;;;;7.70;3.90;;;;;;;18.89;58.11;100670.78;5075079;28;20163;-63
2022/11/30 06:31:01;;;;;;;6.70;4.10;;;;;;;18.94;58.04;100669.66;5075687;28;21003;-64
2022/11/30 06:33:26;;;;;;;5.00;3.80;;;;;;;18.90;58.29;100678.16;5085701;28;20651;-64
2022/11/30 06:35:52;;;;;;;6.20;4.03;;;;;;;18.94;58.08;100675.38;5077967;28;20421;-64
2022/11/30 06:38:17;;;;;;;5.80;4.07;;;;;;;18.93;58.23;100679.47;5073867;28;20194;-64
2022/11/30 06:40:43;;;;;;;5.53;3.70;;;;;;;18.92;58.30;100672.88;5054021;28;20187;-65
2022/11/30 06:43:08;;;;;;;8.23;3.67;;;;;;;18.94;58.06;100681.94;5069174;28;20174;-64
2022/11/30 06:45:34;;;;;;;6.07;4.10;;;;;;;18.91;58.40;100681.88;5089452;28;20729;-63
2022/11/30 06:47:59;;;;;;;5.70;3.80;;;;;;;18.92;58.23;100681.47;5071906;28;20197;-64
2022/11/30 06:50:25;;;;;;;7.13;3.50;;;;;;;18.91;58.28;100676.97;5075224;28;20669;-63
2022/11/30 06:52:50;;;;;;;9.47;4.87;;;;;;;18.91;58.16;100679.81;5074551;28;20549;-64
2022/11/30 06:55:16;;;;;;;6.90;3.90;;;;;;;18.91;58.19;100676.16;5074815;28;20223;-64
2022/11/30 06:57:41;;;;;;;7.53;3.93;;;;;;;18.94;58.08;100686.81;5064701;28;20207;-63
2022/11/30 07:00:07;;;;;;;4.80;3.57;;;;;;;18.92;58.20;100687.19;5071420;28;20210;-63
2022/11/30 07:02:33;;;;;;;7.23;4.63;;;;;;;18.94;58.19;100681.94;5073993;28;20700;-63
2022/11/30 07:04:58;;;;;;;6.57;3.80;;;;;;;18.94;58.38;100681.09;5019762;28;20455;-64
2022/11/30 07:07:24;;;;;;;9.00;3.70;;;;;;;18.95;58.05;100679.91;5054339;28;20168;-63
2022/11/30 07:09:49;;;;;;;5.30;3.80;;;;;;;18.94;58.27;100686.81;5073700;28;20179;-64
2022/11/30 07:12:15;;;;;;;6.40;3.73;;;;;;;18.93;58.40;100680.28;5074466;28;20170;-63
2022/11/30 07:14:41;;;;;;;6.27;4.10;;;;;;;18.94;58.17;100693.38;5068710;28;20187;-63
2022/11/30 07:17:06;;;;;;;5.97;4.00;;;;;;;18.94;57.93;100684.81;5051767;28;20168;-63
2022/11/30 07:19:34;;;;;;;4.53;3.47;;;;;;;18.97;58.45;100684.03;5088995;28;20202;-63
2022/11/30 07:22:00;;;;;;;6.80;4.10;;;;;;;18.94;58.30;100690.53;5072335;28;20676;-63
2022/11/30 07:27:09;;;;;;;6.10;3.90;;;;;;;18.95;58.28;100700.75;5060357;28;20194;-63
2022/11/30 07:29:35;;;;;;;5.17;3.67;;;;;;;18.93;58.15;100699.47;5073265;28;20406;-63
2022/11/30 07:32:00;;;;;;;5.50;3.97;;;;;;;18.96;58.43;100693.03;5072323;28;20205;-63
2022/11/30 07:34:26;;;;;;;6.70;4.20;;;;;;;18.94;58.36;100692.56;5071939;28;20201;-63
2022/11/30 07:36:51;;;;;;;4.67;3.40;;;;;;;18.92;58.27;100700.69;5069366;28;20214;-63
2022/11/30 07:39:17;;;;;;;7.00;4.20;;;;;;;18.95;58.44;100692.19;5091640;28;20839;-63
2022/11/30 07:41:42;;;;;;;6.43;3.77;;;;;;;18.95;58.27;100695.03;5090816;28;20166;-63
2022/11/30 07:44:08;;;;;;;5.53;3.50;;;;;;;18.95;58.39;100699.91;5090773;28;20222;-63
2022/11/30 07:46:34;;;;;;;4.90;3.13;;;;;;;18.97;58.28;100698.34;5090576;28;20167;-63
2022/11/30 07:49:01;;;;;;;4.63;3.20;;;;;;;18.95;58.36;100703.63;5077564;28;20558;-64
2022/11/30 07:51:26;;;;;;;5.30;3.70;;;;;;;18.95;58.16;100700.75;5054241;28;20497;-63
2022/11/30 07:53:54;;;;;;;5.97;3.80;;;;;;;18.95;57.98;100703.63;5075757;28;20465;-63
2022/11/30 07:56:20;;;;;;;8.10;3.60;;;;;;;18.97;58.31;100709.78;5074062;28;20250;-63
2022/11/30 07:58:46;;;;;;;4.53;3.07;;;;;;;18.97;58.34;100711.84;5051030;28;20466;-63
2022/11/30 08:01:14;;;;;;;6.00;3.93;;;;;;;18.97;58.33;100704.06;5038935;28;20218;-63
2022/11/30 08:03:39;;;;;;;5.20;3.10;;;;;;;18.96;58.36;100699.56;5073110;28;20781;-63
2022/11/30 08:06:13;;;;;;;5.97;3.90;;;;;;;18.95;58.15;100703.63;5091622;28;20460;-63
2022/11/30 08:08:41;;;;;;;5.10;3.47;;;;;;;18.96;58.19;100713.06;5078463;28;20688;-63
2022/11/30 08:11:07;;;;;;;5.50;3.50;;;;;;;18.98;58.38;100710.63;5039022;28;20560;-63
2022/11/30 08:13:32;;;;;;;6.37;4.07;;;;;;;18.96;58.32;100710.19;5068136;28;20525;-63
2022/11/30 08:16:05;;;;;;;5.40;3.03;;;;;;;18.98;58.20;100711.47;5081717;28;20953;-63
2022/11/30 08:18:31;;;;;;;6.53;4.37;;;;;;;18.98;57.91;100704.91;5082529;28;20202;-63
2022/11/30 08:20:58;;;;;;;5.80;3.70;;;;;;;18.96;58.34;100707.31;5072743;28;20989;-63
2022/11/30 08:23:24;;;;;;;4.47;3.20;;;;;;;19.00;58.12;100706.19;5041832;28;20179;-63
2022/11/30 08:25:49;;;;;;;5.90;3.70;;;;;;;19.01;58.19;100701.31;5058180;28;20982;-63
2022/11/30 08:28:15;;;;;;;4.80;3.50;;;;;;;19.01;58.41;100701.31;5069226;28;20183;-63
2022/11/30 08:30:40;;;;;;;5.57;3.87;;;;;;;19.00;58.23;100705.34;5065028;28;20190;-63
2022/11/30 08:33:06;;;;;;;5.30;3.50;;;;;;;18.96;58.24;100699.56;5062014;28;20194;-63
2022/11/30 08:35:31;;;;;;;4.20;3.30;;;;;;;18.99;58.19;100706.56;5071728;28;20557;-63
2022/11/30 08:37:57;;;;;;;4.70;3.10;;;;;;;18.98;58.14;100707.78;5041447;28;20194;-63
2022/11/30 08:40:22;;;;;;;5.83;3.47;;;;;;;18.97;58.48;100715.50;5077551;28;20190;-63
2022/11/30 08:42:48;;;;;;;4.27;2.83;;;;;;;19.00;58.21;100709.06;5064746;28;20195;-63
2022/11/30 08:45:13;;;;;;;6.63;3.90;;;;;;;19.00;58.12;100713.94;5058507;28;20703;-63
2022/11/30 08:47:38;;;;;;;4.93;3.30;;;;;;;19.00;58.13;100716.81;5071242;28;20250;-63
2022/11/30 08:50:04;;;;;;;4.47;3.20;;;;;;;19.00;58.25;100719.66;5073234;28;20186;-63
2022/11/30 08:52:30;;;;;;;5.23;3.30;;;;;;;18.98;58.59;100719.22;5063553;28;20187;-63
2022/11/30 08:54:55;;;;;;;6.20;3.90;;;;;;;18.96;58.61;100713.84;5061866;28;20234;-63
2022/11/30 08:57:21;;;;;;;4.83;3.27;;;;;;;19.02;58.21;100726.66;5072368;28;20646;-63
2022/11/30 08:59:46;;;;;;;5.43;3.20;;;;;;;18.99;58.09;100730.28;5059535;28;20218;-63
2022/11/30 09:02:15;;;;;;;4.63;3.30;;;;;;;18.99;58.25;100727.44;5064935;28;20191;-63
2022/11/30 09:04:41;;;;;;;5.03;3.30;;;;;;;18.97;58.55;100734.72;5058244;28;20200;-63
2022/11/30 09:07:08;;;;;;;3.80;2.87;;;;;;;18.99;58.32;100727.44;5071765;28;20801;-63
2022/11/30 09:09:36;;;;;;;5.80;3.70;;;;;;;19.01;58.30;100727.06;5060458;28;20635;-63
2022/11/30 09:12:01;;;;;;;4.27;2.97;;;;;;;18.99;58.41;100736.03;5065626;28;20421;-63
2022/11/30 09:14:27;;;;;;;5.40;3.33;;;;;;;19.00;58.29;100731.09;5071119;28;20438;-63
2022/11/30 09:16:53;;;;;;;6.30;3.47;;;;;;;19.00;58.29;100742.56;5059408;28;20179;-63
2022/11/30 09:19:18;;;;;;;5.10;3.40;;;;;;;19.00;58.34;100737.66;5051839;28;20215;-63
2022/11/30 09:21:44;;;;;;;5.50;3.60;;;;;;;19.01;58.21;100736.47;5060386;28;20428;-63
2022/11/30 09:24:09;;;;;;;4.77;3.33;;;;;;;19.00;58.36;100743.38;5064361;28;20183;-63
2022/11/30 09:26:34;;;;;;;5.30;3.70;;;;;;;18.99;58.25;100736.03;5067490;28;20260;-63
2022/11/30 09:29:00;;;;;;;5.60;3.80;;;;;;;18.97;58.61;100741.25;5077755;28;20177;-63
2022/11/30 09:31:25;;;;;;;7.63;3.20;;;;;;;19.04;57.91;100747.16;5071853;28;20210;-63
2022/11/30 09:33:51;;;;;;;4.80;3.23;;;;;;;19.01;58.26;100744.22;5063888;28;20179;-64
2022/11/30 09:36:18;;;;;;;4.20;2.90;;;;;;;19.04;58.32;100747.16;5072001;28;20490;-63
2022/11/30 09:38:44;;;;;;;6.13;3.07;;;;;;;19.03;58.36;100747.53;5059501;28;20657;-63
2022/11/30 09:41:12;;;;;;;4.10;3.23;;;;;;;18.99;58.32;100758.91;5066949;28;20437;-63
2022/11/30 09:43:40;;;;;;;4.10;3.40;;;;;;;19.00;58.37;100759.72;5070542;28;20179;-63
2022/11/30 09:46:07;;;;;;;4.90;3.13;;;;;;;19.01;58.45;100750.78;5070146;28;20443;-63
2022/11/30 09:48:35;;;;;;;4.03;3.10;;;;;;;19.00;58.27;100746.25;5055177;28;20514;-63
2022/11/30 09:51:05;;;;;;;5.20;3.23;;;;;;;18.98;58.32;100751.53;5056270;28;20421;-63
2022/11/30 09:53:42;;;;;;;4.20;3.00;;;;;;;19.00;58.52;100749.13;5055824;28;20421;-63
2022/11/30 09:56:34;;;;;;;4.37;2.60;;;;;;;19.00;58.29;100748.28;5038314;28;20753;-63
2022/11/30 09:59:28;;;;;;;4.03;3.00;;;;;;;19.00;58.34;100746.25;5059504;28;20465;-63
2022/11/30 10:01:56;;;;;;;4.57;3.03;;;;;;;19.01;58.18;100745.03;5056191;28;20564;-63
2022/11/30 10:04:23;;;;;;;3.77;2.67;;;;;;;19.03;58.59;100751.25;5040693;28;20445;-63
2022/11/30 10:07:00;;;;;;;4.87;3.43;;;;;;;19.01;58.18;100749.97;5041037;28;20939;-63
2022/11/30 10:09:50;;;;;;;4.93;3.60;;;;;;;19.01;58.27;100750.78;5056754;28;20413;-63
2022/11/30 10:12:18;;;;;;;4.57;2.97;;;;;;;19.01;58.37;100745.03;5063352;28;20406;-63
2022/11/30 10:15:01;;;;;;;3.70;2.83;;;;;;;19.00;58.60;100742.56;5059374;28;20421;-63
2022/11/30 10:17:39;;;;;;;5.27;3.30;;;;;;;19.03;58.28;100739.78;5062572;28;21183;-63
2022/11/30 10:20:23;;;;;;;4.63;3.10;;;;;;;19.05;58.22;100739.41;5052170;28;20445;-63
2022/11/30 10:23:14;;;;;;;5.10;2.90;;;;;;;19.05;58.11;100737.38;5058485;28;20425;-63
2022/11/30 10:25:49;;;;;;;3.80;3.10;;;;;;;19.04;58.37;100738.59;5049782;28;20789;-63
2022/11/30 10:28:38;;;;;;;5.23;3.67;;;;;;;19.01;58.67;100733.59;5069998;28;20421;-63
2022/11/30 10:31:03;;;;;;;4.70;3.03;;;;;;;19.02;58.34;100735.25;5043771;28;20453;-64
2022/11/30 10:33:38;;;;;;;4.63;3.47;;;;;;;19.03;58.11;100736.09;5056914;28;21273;-63
2022/11/30 10:36:07;;;;;;;4.70;3.20;;;;;;;19.06;58.42;100738.22;5050755;28;20264;-63
2022/11/30 10:38:35;;;;;;;3.70;2.77;;;;;;;19.04;58.38;100730.00;5063332;28;20473;-63
2022/11/30 10:41:17;;;;;;;4.83;3.07;;;;;;;19.01;58.39;100733.59;5038304;28;20444;-63
2022/11/30 10:43:52;;;;;;;4.63;3.20;;;;;;;19.03;58.29;100728.34;5060301;28;20471;-63
2022/11/30 10:46:22;;;;;;;4.60;3.07;;;;;;;19.04;58.26;100735.72;5056565;28;20968;-63
2022/11/30 10:48:52;;;;;;;5.00;3.20;;;;;;;19.06;58.04;100724.72;5051327;28;20444;-63
2022/11/30 10:51:18;;;;;;;4.53;3.00;;;;;;;19.06;58.30;100724.72;5059199;28;20456;-63
2022/11/30 10:53:43;;;;;;;6.17;3.53;;;;;;;19.07;58.28;100720.66;5064629;28;20425;-63
2022/11/30 10:56:10;;;;;;;5.80;3.27;;;;;;;19.04;58.47;100721.41;5072678;28;20236;-63
2022/11/30 10:58:38;;;;;;;5.20;3.30;;;;;;;19.04;58.35;100720.56;5062518;28;20226;-63
2022/11/30 11:01:05;;;;;;;3.90;2.93;;;;;;;19.03;58.45;100713.19;5041989;28;20453;-63
2022/11/30 11:03:31;;;;;;;5.70;3.30;;;;;;;19.07;58.12;100706.34;5039315;28;20501;-63
2022/11/30 11:06:21;;;;;;;4.33;2.87;;;;;;;19.04;58.35;100712.84;5056606;28;20620;-63
2022/11/30 11:08:46;;;;;;;3.90;2.90;;;;;;;19.04;58.35;100709.97;5040075;28;20175;-63
2022/11/30 11:11:29;;;;;;;5.77;3.23;;;;;;;19.02;58.44;100715.22;5056536;28;20474;-63
2022/11/30 11:14:22;;;;;;;3.80;2.80;;;;;;;19.08;58.08;100710.03;5037809;28;20186;-63
2022/11/30 11:17:01;;;;;;;3.87;2.90;;;;;;;19.07;58.30;100706.34;5066224;28;20429;-63
2022/11/30 11:19:40;;;;;;;4.77;3.63;;;;;;;19.07;58.45;100705.53;5029333;28;20463;-64
2022/11/30 11:22:13;;;;;;;5.43;3.87;;;;;;;18.90;58.15;100698.19;5056354;28;20421;-63
2022/11/30 11:24:38;;;;;;;5.87;3.87;;;;;;;18.74;58.01;100700.28;5038629;28;20433;-63
2022/11/30 11:27:04;;;;;;;10.43;7.30;;;;;;;18.72;56.86;100705.53;5054537;28;20503;-63
2022/11/30 11:29:34;;;;;;;8.40;6.53;;;;;;;18.68;53.67;100701.78;5042094;28;20163;-63